Time;durP1;ratioP1;P1;durP2;ratioP2;P2;SDS_P1;SDS_P2;PMS_P1;PMS_P2;Temp;Humidity;BMP_temperature;BMP_pressure;BME280_temperature;BME280_humidity;BME280_pressure;Samples;Min_cycle;Max_cycle;Signal;HPM_P1;HPM_P2
2022/09/11 00:00:38;;;;;;;33.85;26.38;;;;;;;;;;4986958;28;20102;-73
2022/09/11 00:03:04;;;;;;;31.17;26.50;;;;;;;;;;5004306;28;20042;-73
2022/09/11 00:05:30;;;;;;;32.75;25.73;;;;;;;;;;5006736;28;20038;-73
2022/09/11 00:07:57;;;;;;;34.40;27.25;;;;;;;;;;5007002;28;20046;-74
2022/09/11 00:10:23;;;;;;;29.83;24.67;;;;;;;;;;5007935;28;20473;-74
2022/09/11 00:12:50;;;;;;;33.53;28.30;;;;;;;;;;4988826;28;20043;-73
2022/09/11 00:15:16;;;;;;;34.70;29.40;;;;;;;;;;5008102;28;20050;-73
2022/09/11 00:17:42;;;;;;;37.00;27.67;;;;;;;;;;5007387;28;20042;-73
2022/09/11 00:20:08;;;;;;;148.57;28.95;;;;;;;;;;5005138;28;20046;-73
2022/09/11 00:22:34;;;;;;;117.00;28.13;;;;;;;;;;5006929;28;20046;-73
2022/09/11 00:25:00;;;;;;;41.95;26.17;;;;;;;;;;5008264;28;20039;-72
2022/09/11 00:27:26;;;;;;;38.80;28.30;;;;;;;;;;5006339;28;20035;-72
2022/09/11 00:29:53;;;;;;;35.30;27.05;;;;;;;;;;5006815;28;20054;-73
2022/09/11 00:32:19;;;;;;;35.95;28.02;;;;;;;;;;4987044;28;20061;-72
2022/09/11 00:34:46;;;;;;;40.72;29.88;;;;;;;;;;5008041;28;20045;-72
2022/09/11 00:37:12;;;;;;;37.08;28.25;;;;;;;;;;5007258;28;20073;-73
2022/09/11 00:39:38;;;;;;;32.85;26.80;;;;;;;;;;5011463;28;20046;-72
2022/09/11 00:42:04;;;;;;;34.33;26.10;;;;;;;;;;5011629;28;20050;-73
2022/09/11 00:44:30;;;;;;;29.88;24.27;;;;;;;;;;5011232;28;20103;-73
2022/09/11 00:46:59;;;;;;;32.35;26.05;;;;;;;;;;5009233;28;20039;-73
2022/09/11 00:49:31;;;;;;;29.98;25.10;;;;;;;;;;5012140;28;20034;-73
2022/09/11 00:52:02;;;;;;;33.45;26.52;;;;;;;;;;5010451;28;20030;-73
2022/09/11 00:54:28;;;;;;;;;;;;;;;;;;5010643;28;20084;-73
2022/09/11 00:56:56;;;;;;;35.10;26.42;;;;;;;;;;5009753;28;19956;-73
2022/09/11 00:59:25;;;;;;;33.35;26.50;;;;;;;;;;5013546;28;20049;-72
2022/09/11 01:01:51;;;;;;;35.72;28.92;;;;;;;;;;5011892;28;20042;-73
2022/09/11 01:04:19;;;;;;;35.15;28.17;;;;;;;;;;5014231;28;20058;-73
2022/09/11 01:06:45;;;;;;;35.53;28.15;;;;;;;;;;5010881;28;20046;-73
2022/09/11 01:09:11;;;;;;;73.13;29.38;;;;;;;;;;4993539;28;20046;-73
2022/09/11 01:11:40;;;;;;;356.42;30.48;;;;;;;;;;5013113;28;20038;-73
2022/09/11 01:14:25;;;;;;;311.63;29.35;;;;;;;;;;5012262;28;20042;-73
2022/09/11 01:16:59;;;;;;;221.68;26.15;;;;;;;;;;5013236;28;20046;-74
2022/09/11 01:19:44;;;;;;;76.65;24.60;;;;;;;;;;5012005;28;20499;-72
2022/09/11 01:22:30;;;;;;;30.40;22.65;;;;;;;;;;5009961;28;20046;-73
2022/09/11 01:25:14;;;;;;;35.47;21.80;;;;;;;;;;5011051;28;20046;-73
2022/09/11 01:27:40;;;;;;;27.00;21.80;;;;;;;;;;5010366;28;20043;-73
2022/09/11 01:30:08;;;;;;;35.20;22.17;;;;;;;;;;5029060;28;20053;-73
2022/09/11 01:32:47;;;;;;;38.85;22.88;;;;;;;;;;5030388;28;20097;-73
2022/09/11 01:35:18;;;;;;;29.95;23.08;;;;;;;;;;5012237;28;20060;-73
2022/09/11 01:37:48;;;;;;;29.45;22.65;;;;;;;;;;5031129;28;20042;-73
2022/09/11 01:40:24;;;;;;;30.20;23.83;;;;;;;;;;5013620;28;20054;-73
2022/09/11 01:42:51;;;;;;;30.60;24.52;;;;;;;;;;5024623;28;20328;-73
2022/09/11 01:45:17;;;;;;;33.78;25.85;;;;;;;;;;5030224;28;20092;-73
2022/09/11 01:47:44;;;;;;;35.53;24.77;;;;;;;;;;5030467;28;20132;-73
2022/09/11 01:50:13;;;;;;;33.83;25.88;;;;;;;;;;5029771;28;20077;-73
2022/09/11 01:52:54;;;;;;;32.30;24.58;;;;;;;;;;5028225;28;20048;-73
2022/09/11 01:55:23;;;;;;;31.42;23.15;;;;;;;;;;5030130;28;20038;-73
2022/09/11 01:57:55;;;;;;;52.33;23.13;;;;;;;;;;5029369;28;20046;-73
2022/09/11 02:00:21;;;;;;;28.08;22.73;;;;;;;;;;5017924;28;20048;-73
2022/09/11 02:03:08;;;;;;;30.77;22.42;;;;;;;;;;5030573;28;20037;-73
2022/09/11 02:05:42;;;;;;;29.13;21.63;;;;;;;;;;5031432;28;20045;-73
2022/09/11 02:08:18;;;;;;;30.40;21.63;;;;;;;;;;5030189;28;20109;-73
2022/09/11 02:10:46;;;;;;;28.75;20.65;;;;;;;;;;5029276;28;20045;-73
2022/09/11 02:13:24;;;;;;;27.65;21.08;;;;;;;;;;5031008;28;20046;-73
2022/09/11 02:15:54;;;;;;;25.40;20.42;;;;;;;;;;5025310;28;20484;-73
2022/09/11 02:18:33;;;;;;;26.27;22.35;;;;;;;;;;5027523;28;20050;-73
2022/09/11 02:20:59;;;;;;;26.70;21.63;;;;;;;;;;5029446;28;20114;-73
2022/09/11 02:23:25;;;;;;;27.73;22.50;;;;;;;;;;5029588;28;20046;-73
2022/09/11 02:25:51;;;;;;;26.20;22.00;;;;;;;;;;5028828;28;20045;-72
2022/09/11 02:28:17;;;;;;;31.42;23.40;;;;;;;;;;5030141;28;20049;-73
2022/09/11 02:30:43;;;;;;;42.65;22.67;;;;;;;;;;5028519;28;20050;-73
2022/09/11 02:33:28;;;;;;;42.58;23.90;;;;;;;;;;5028814;28;20046;-72
2022/09/11 02:35:58;;;;;;;31.38;22.80;;;;;;;;;;5029788;28;20185;-73
2022/09/11 02:38:28;;;;;;;29.42;23.30;;;;;;;;;;5027338;28;20049;-73
2022/09/11 02:41:08;;;;;;;26.07;19.83;;;;;;;;;;5014559;28;20132;-73
2022/09/11 02:43:41;;;;;;;32.47;23.83;;;;;;;;;;5027798;28;20073;-72
2022/09/11 02:46:13;;;;;;;27.13;23.15;;;;;;;;;;5028053;28;20133;-73
2022/09/11 02:48:45;;;;;;;30.90;23.77;;;;;;;;;;5027394;28;20052;-73
2022/09/11 02:51:14;;;;;;;30.50;23.98;;;;;;;;;;5028598;28;20101;-73
2022/09/11 02:53:49;;;;;;;33.40;25.17;;;;;;;;;;5028011;28;20073;-73
2022/09/11 02:56:23;;;;;;;28.17;21.95;;;;;;;;;;5025500;28;20045;-74
2022/09/11 02:58:54;;;;;;;28.33;22.52;;;;;;;;;;5027418;28;20106;-74
2022/09/11 03:01:20;;;;;;;28.13;22.95;;;;;;;;;;5026347;28;20092;-73
2022/09/11 03:03:46;;;;;;;27.60;22.48;;;;;;;;;;5027345;28;20049;-73
2022/09/11 03:06:17;;;;;;;29.08;23.88;;;;;;;;;;5009959;28;20052;-73
2022/09/11 03:08:43;;;;;;;34.85;25.55;;;;;;;;;;5025829;28;20052;-73
2022/09/11 03:11:10;;;;;;;29.35;24.38;;;;;;;;;;5026613;28;20072;-74
2022/09/11 03:13:36;;;;;;;27.27;23.58;;;;;;;;;;5026463;28;20042;-73
2022/09/11 03:16:03;;;;;;;33.13;25.40;;;;;;;;;;5013287;28;20042;-73
2022/09/11 03:18:29;;;;;;;34.75;27.23;;;;;;;;;;5023871;28;20042;-73
2022/09/11 03:20:55;;;;;;;35.28;26.52;;;;;;;;;;5026221;28;20069;-73
2022/09/11 03:23:22;;;;;;;32.30;25.17;;;;;;;;;;5010326;28;20057;-72
2022/09/11 03:25:48;;;;;;;36.00;27.48;;;;;;;;;;5026840;28;20097;-72
2022/09/11 03:28:14;;;;;;;32.55;26.65;;;;;;;;;;5026823;28;20098;-73
2022/09/11 03:30:40;;;;;;;32.13;26.42;;;;;;;;;;5027637;28;20105;-73
2022/09/11 03:33:06;;;;;;;30.33;25.52;;;;;;;;;;5020365;28;20045;-72
2022/09/11 03:35:33;;;;;;;30.75;24.48;;;;;;;;;;5026689;28;20038;-72
2022/09/11 03:37:59;;;;;;;33.13;26.77;;;;;;;;;;5025306;28;20054;-73
2022/09/11 03:40:25;;;;;;;38.78;28.50;;;;;;;;;;5026356;28;20523;-72
2022/09/11 03:42:51;;;;;;;33.30;27.38;;;;;;;;;;5025903;28;20049;-72
2022/09/11 03:45:18;;;;;;;34.30;26.48;;;;;;;;;;5026846;28;20054;-73
2022/09/11 03:47:44;;;;;;;30.75;25.90;;;;;;;;;;5025982;28;20041;-72
2022/09/11 03:50:10;;;;;;;41.60;29.33;;;;;;;;;;5025796;28;20045;-72
2022/09/11 03:52:36;;;;;;;38.00;27.13;;;;;;;;;;5026518;28;20062;-72
2022/09/11 03:55:03;;;;;;;37.83;27.20;;;;;;;;;;5025823;28;20077;-72
2022/09/11 03:57:32;;;;;;;37.38;26.80;;;;;;;;;;5006978;28;20120;-72
2022/09/11 04:00:00;;;;;;;33.20;24.75;;;;;;;;;;5016380;28;20053;-72
2022/09/11 04:02:26;;;;;;;32.33;23.92;;;;;;;;;;5025447;28;20070;-72
2022/09/11 04:04:52;;;;;;;31.67;24.77;;;;;;;;;;5026426;28;20049;-72
2022/09/11 04:07:18;;;;;;;29.10;23.05;;;;;;;;;;5026145;28;20053;-73
2022/09/11 04:09:45;;;;;;;29.70;22.92;;;;;;;;;;5026010;28;20038;-72
2022/09/11 04:12:11;;;;;;;27.40;22.77;;;;;;;;;;5025582;28;20042;-72
2022/09/11 04:14:37;;;;;;;30.70;24.13;;;;;;;;;;5026175;28;20054;-72
2022/09/11 04:17:05;;;;;;;30.67;24.88;;;;;;;;;;5023022;28;20038;-73
2022/09/11 04:19:31;;;;;;;34.60;27.00;;;;;;;;;;5025029;28;20094;-73
2022/09/11 04:21:57;;;;;;;34.90;24.70;;;;;;;;;;5008413;28;20100;-73
2022/09/11 04:24:23;;;;;;;29.35;23.88;;;;;;;;;;5024775;28;20097;-73
2022/09/11 04:26:49;;;;;;;32.83;24.25;;;;;;;;;;5021808;28;20042;-74
2022/09/11 04:29:16;;;;;;;26.73;22.45;;;;;;;;;;5015838;28;20042;-73
2022/09/11 04:31:42;;;;;;;25.83;22.33;;;;;;;;;;5003933;28;20050;-74
2022/09/11 04:34:08;;;;;;;31.75;23.73;;;;;;;;;;5001820;28;20039;-73
2022/09/11 04:36:34;;;;;;;29.17;22.05;;;;;;;;;;5005676;28;20488;-73
2022/09/11 04:39:00;;;;;;;30.45;21.73;;;;;;;;;;5005408;28;20042;-73
2022/09/11 04:41:27;;;;;;;42.83;21.88;;;;;;;;;;5005426;28;20038;-73
2022/09/11 04:43:55;;;;;;;25.33;19.42;;;;;;;;;;4969376;28;20062;-73
2022/09/11 04:46:21;;;;;;;24.17;19.65;;;;;;;;;;4987812;28;20114;-73
2022/09/11 04:48:48;;;;;;;136.43;23.60;;;;;;;;;;4985914;28;20544;-73
2022/09/11 04:51:24;;;;;;;56.70;22.50;;;;;;;;;;5005272;28;20049;-73
2022/09/11 04:53:51;;;;;;;77.22;22.50;;;;;;;;;;5004851;28;20042;-73
2022/09/11 04:56:20;;;;;;;27.42;19.75;;;;;;;;;;5004750;28;20074;-73
2022/09/11 04:58:46;;;;;;;25.75;19.52;;;;;;;;;;4985235;28;20104;-73
2022/09/11 05:01:14;;;;;;;36.45;23.70;;;;;;;;;;5000722;28;20074;-74
2022/09/11 05:03:41;;;;;;;39.38;24.70;;;;;;;;;;5001347;28;20038;-73
2022/09/11 05:06:07;;;;;;;27.05;20.73;;;;;;;;;;5004112;28;20060;-73
2022/09/11 05:08:34;;;;;;;23.23;18.52;;;;;;;;;;5006565;28;20497;-73
2022/09/11 05:11:00;;;;;;;21.52;18.17;;;;;;;;;;4987816;28;20074;-73
2022/09/11 05:13:30;;;;;;;21.55;18.77;;;;;;;;;;5006196;28;20054;-73
2022/09/11 05:16:07;;;;;;;33.17;23.40;;;;;;;;;;5003893;28;20046;-73
2022/09/11 05:18:33;;;;;;;22.33;19.80;;;;;;;;;;5007609;28;20057;-73
2022/09/11 05:21:03;;;;;;;26.88;21.48;;;;;;;;;;5005174;28;20110;-73
2022/09/11 05:23:31;;;;;;;22.70;19.15;;;;;;;;;;5006613;28;20073;-73
2022/09/11 05:25:58;;;;;;;21.48;18.23;;;;;;;;;;5007910;28;20428;-73
2022/09/11 05:28:25;;;;;;;20.35;18.15;;;;;;;;;;5010327;28;20042;-72
2022/09/11 05:30:52;;;;;;;23.67;19.85;;;;;;;;;;5006899;28;20070;-73
2022/09/11 05:33:18;;;;;;;24.05;20.65;;;;;;;;;;5009297;28;20066;-73
2022/09/11 05:35:45;;;;;;;23.77;20.45;;;;;;;;;;5011656;28;20052;-73
2022/09/11 05:38:11;;;;;;;24.13;20.38;;;;;;;;;;5012392;28;20066;-73
2022/09/11 05:40:43;;;;;;;24.17;20.58;;;;;;;;;;5009203;28;20116;-73
2022/09/11 05:43:09;;;;;;;21.50;18.90;;;;;;;;;;4996930;28;20082;-73
2022/09/11 05:45:35;;;;;;;23.13;20.63;;;;;;;;;;5013283;28;20079;-73
2022/09/11 05:48:02;;;;;;;21.45;19.25;;;;;;;;;;5015556;28;20046;-73
2022/09/11 05:50:30;;;;;;;21.83;19.23;;;;;;;;;;4994534;28;20072;-73
2022/09/11 05:52:56;;;;;;;18.50;16.58;;;;;;;;;;5009687;28;20113;-73
2022/09/11 05:55:22;;;;;;;18.10;16.10;;;;;;;;;;5007703;28;20054;-73
2022/09/11 05:57:51;;;;;;;18.13;16.27;;;;;;;;;;5004820;28;20081;-73
2022/09/11 06:00:20;;;;;;;17.60;15.90;;;;;;;;;;4989719;28;20042;-72
2022/09/11 06:02:47;;;;;;;14.73;13.32;;;;;;;;;;4999823;28;20051;-72
2022/09/11 06:05:15;;;;;;;16.52;14.32;;;;;;;;;;5001943;28;20054;-73
2022/09/11 06:07:41;;;;;;;14.68;13.23;;;;;;;;;;4985197;28;20053;-72
2022/09/11 06:10:08;;;;;;;14.27;12.77;;;;;;;;;;5003722;28;20053;-72
2022/09/11 06:12:34;;;;;;;14.50;12.80;;;;;;;;;;5004605;28;20421;-73
2022/09/11 06:15:00;;;;;;;15.57;13.18;;;;;;;;;;4988935;28;20112;-73
2022/09/11 06:17:27;;;;;;;13.55;12.25;;;;;;;;;;5004303;28;20043;-73
2022/09/11 06:19:53;;;;;;;14.82;13.27;;;;;;;;;;5003927;28;20054;-73
2022/09/11 06:22:20;;;;;;;14.25;12.75;;;;;;;;;;5003834;28;20046;-73
2022/09/11 06:24:47;;;;;;;13.80;12.40;;;;;;;;;;4992421;28;20446;-73
2022/09/11 06:27:14;;;;;;;14.52;13.02;;;;;;;;;;4999445;28;20054;-73
2022/09/11 06:29:40;;;;;;;18.17;12.43;;;;;;;;;;4997254;28;20047;-73
2022/09/11 06:32:06;;;;;;;14.50;12.95;;;;;;;;;;4999994;28;20080;-73
2022/09/11 06:34:32;;;;;;;13.77;12.48;;;;;;;;;;4999530;28;20053;-74
2022/09/11 06:36:58;;;;;;;12.05;10.85;;;;;;;;;;5007673;28;20098;-74
2022/09/11 06:39:25;;;;;;;13.98;12.13;;;;;;;;;;5002952;28;20049;-75
2022/09/11 06:41:52;;;;;;;14.10;12.68;;;;;;;;;;5003652;28;20493;-75
2022/09/11 06:44:19;;;;;;;14.50;13.00;;;;;;;;;;4999059;28;20053;-74
2022/09/11 06:46:45;;;;;;;14.45;13.07;;;;;;;;;;4999103;28;20137;-74
2022/09/11 06:49:11;;;;;;;15.48;14.07;;;;;;;;;;4996234;28;20046;-74
2022/09/11 06:51:38;;;;;;;14.15;12.70;;;;;;;;;;4979823;28;20109;-75
2022/09/11 06:54:05;;;;;;;13.45;12.07;;;;;;;;;;4999212;28;20058;-74
2022/09/11 06:56:31;;;;;;;15.20;13.38;;;;;;;;;;4999208;28;20038;-74
2022/09/11 06:58:57;;;;;;;14.30;12.55;;;;;;;;;;4981338;28;20049;-74
2022/09/11 07:01:24;;;;;;;15.18;13.77;;;;;;;;;;4997863;28;20049;-75
2022/09/11 07:03:52;;;;;;;15.27;13.63;;;;;;;;;;4998920;28;20046;-75
2022/09/11 07:06:29;;;;;;;14.23;12.77;;;;;;;;;;4998728;28;20095;-75
2022/09/11 07:09:01;;;;;;;13.38;11.85;;;;;;;;;;5000269;28;20058;-75
2022/09/11 07:11:33;;;;;;;14.10;12.60;;;;;;;;;;4998868;28;20042;-75
2022/09/11 07:14:01;;;;;;;13.82;12.63;;;;;;;;;;5001216;28;20094;-74
2022/09/11 07:16:27;;;;;;;14.57;12.95;;;;;;;;;;5000451;28;20612;-75
2022/09/11 07:18:53;;;;;;;14.15;12.85;;;;;;;;;;4997686;28;20046;-74
2022/09/11 07:21:24;;;;;;;14.65;13.32;;;;;;;;;;5001238;28;20046;-75
2022/09/11 07:23:54;;;;;;;13.43;12.13;;;;;;;;;;5006287;28;20053;-73
2022/09/11 07:26:20;;;;;;;14.07;12.60;;;;;;;;;;5004236;28;20050;-74
2022/09/11 07:28:49;;;;;;;15.32;13.80;;;;;;;;;;5021226;28;20046;-75
2022/09/11 07:31:16;;;;;;;15.68;14.05;;;;;;;;;;5030235;28;20098;-74
2022/09/11 07:33:49;;;;;;;15.48;14.00;;;;;;;;;;5025798;28;20097;-74
2022/09/11 07:36:17;;;;;;;17.17;15.38;;;;;;;;;;5027157;28;20069;-74
2022/09/11 07:38:44;;;;;;;17.85;15.32;;;;;;;;;;5024991;28;20102;-74
2022/09/11 07:41:11;;;;;;;16.13;14.48;;;;;;;;;;5027748;28;20105;-74
2022/09/11 07:43:38;;;;;;;15.88;14.38;;;;;;;;;;5027962;28;20046;-75
2022/09/11 07:46:04;;;;;;;16.15;14.50;;;;;;;;;;5025647;28;20049;-74
2022/09/11 07:48:31;;;;;;;18.10;14.80;;;;;;;;;;5030686;28;20041;-75
2022/09/11 07:50:58;;;;;;;17.60;15.40;;;;;;;;;;5013994;28;20033;-75
2022/09/11 07:53:24;;;;;;;18.20;15.95;;;;;;;;;;5019211;28;20097;-76
2022/09/11 07:55:51;;;;;;;18.90;16.90;;;;;;;;;;5018383;28;20056;-77
2022/09/11 07:58:17;;;;;;;18.35;16.40;;;;;;;;;;5025722;28;20046;-76
2022/09/11 08:00:44;;;;;;;19.30;16.40;;;;;;;;;;5029077;28;20030;-77
2022/09/11 08:03:10;;;;;;;18.20;16.40;;;;;;;;;;5029655;28;20041;-77
2022/09/11 08:05:36;;;;;;;18.00;16.10;;;;;;;;;;5031299;28;20046;-76
2022/09/11 08:08:02;;;;;;;18.75;16.83;;;;;;;;;;5026858;28;20045;-76
2022/09/11 08:10:28;;;;;;;17.58;15.80;;;;;;;;;;5027822;28;20081;-76
2022/09/11 08:12:54;;;;;;;19.20;17.30;;;;;;;;;;5030318;28;20042;-75
2022/09/11 08:15:20;;;;;;;20.13;18.23;;;;;;;;;;5017415;28;20476;-77
2022/09/11 08:17:47;;;;;;;21.25;18.73;;;;;;;;;;5012855;28;20512;-76
2022/09/11 08:20:13;;;;;;;19.58;17.67;;;;;;;;;;5011406;28;20029;-75
2022/09/11 08:22:40;;;;;;;21.63;18.08;;;;;;;;;;5034396;28;20073;-74
2022/09/11 08:25:07;;;;;;;19.95;17.98;;;;;;;;;;5034559;28;20049;-75
2022/09/11 08:27:34;;;;;;;20.25;18.15;;;;;;;;;;5017813;28;20392;-74
2022/09/11 08:30:00;;;;;;;19.67;17.75;;;;;;;;;;5034515;28;20069;-75
2022/09/11 08:32:27;;;;;;;22.40;20.08;;;;;;;;;;5033963;28;20037;-75
2022/09/11 08:34:53;;;;;;;19.65;17.63;;;;;;;;;;5028825;28;22022;-76
2022/09/11 08:37:19;;;;;;;23.00;20.52;;;;;;;;;;5018403;28;20053;-77
2022/09/11 08:39:45;;;;;;;21.38;19.27;;;;;;;;;;5017838;28;20053;-80
2022/09/11 08:42:15;;;;;;;21.67;19.48;;;;;;;;;;5013592;28;20076;-80
2022/09/11 08:44:45;;;;;;;20.35;17.30;;;;;;;;;;5021650;28;20049;-78
2022/09/11 08:47:17;;;;;;;28.65;18.90;;;;;;;;;;5026187;28;20365;-76
2022/09/11 08:49:46;;;;;;;23.08;19.83;;;;;;;;;;5026203;28;20066;-80
2022/09/11 08:52:14;;;;;;;29.95;19.02;;;;;;;;;;5029083;28;20038;-80
2022/09/11 08:54:41;;;;;;;22.75;18.23;;;;;;;;;;5033176;28;20106;-79
2022/09/11 08:57:26;;;;;;;19.63;17.52;;;;;;;;;;5028140;28;20082;-76
2022/09/11 09:00:08;;;;;;;20.92;17.35;;;;;;;;;;5032375;28;20036;-76
2022/09/11 09:02:33;;;;;;;;;;;;;;;;;;5037054;28;20076;-75
2022/09/11 09:05:05;;;;;;;18.55;16.65;;;;;;;;;;4992549;28;19921;-76
2022/09/11 09:07:31;;;;;;;;;;;;;;;;;;5021829;28;20034;-78
2022/09/11 09:10:06;;;;;;;17.45;15.65;;;;;;;;;;5025838;28;20324;-76
2022/09/11 09:12:40;;;;;;;19.52;14.00;;;;;;;;;;5021695;28;20098;-74
2022/09/11 09:15:12;;;;;;;16.02;13.35;;;;;;;;;;5021405;28;20395;-76
2022/09/11 09:17:41;;;;;;;15.90;14.20;;;;;;;;;;5025391;28;20050;-80
2022/09/11 09:20:12;;;;;;;14.50;12.98;;;;;;;;;;5028799;28;20050;-82
2022/09/11 09:22:44;;;;;;;22.48;13.52;;;;;;;;;;5020434;28;20050;-76
2022/09/11 09:25:15;;;;;;;17.80;11.10;;;;;;;;;;5016851;28;20090;-76
2022/09/11 09:27:45;;;;;;;30.65;12.43;;;;;;;;;;5021916;28;20049;-76
2022/09/11 09:30:26;;;;;;;15.17;11.73;;;;;;;;;;5024594;28;20578;-79
2022/09/11 09:32:52;;;;;;;27.02;12.18;;;;;;;;;;5017163;28;20309;-81
2022/09/11 09:35:38;;;;;;;13.05;9.52;;;;;;;;;;5023927;28;20049;-78
2022/09/11 09:38:10;;;;;;;12.98;10.63;;;;;;;;;;5009428;28;20085;-77
2022/09/11 09:40:37;;;;;;;10.80;7.47;;;;;;;;;;5016740;28;20412;-77
2022/09/11 09:43:18;;;;;;;10.00;6.28;;;;;;;;;;5021230;28;20050;-77
2022/09/11 09:45:47;;;;;;;10.52;6.80;;;;;;;;;;5016972;28;20065;-80
2022/09/11 09:48:13;;;;;;;9.85;6.15;;;;;;;;;;5020038;28;20061;-80
2022/09/11 09:50:42;;;;;;;12.00;5.68;;;;;;;;;;5017388;28;20041;-80
2022/09/11 09:53:28;;;;;;;8.43;6.20;;;;;;;;;;4998543;28;20078;-78
2022/09/11 09:55:55;;;;;;;8.63;6.15;;;;;;;;;;5000939;28;20050;-81
2022/09/11 09:58:31;;;;;;;10.48;6.50;;;;;;;;;;5020516;28;20572;-82
2022/09/11 10:00:58;;;;;;;10.32;5.65;;;;;;;;;;5014791;28;20125;-81
2022/09/11 10:03:24;;;;;;;10.73;5.63;;;;;;;;;;4997627;28;20112;-79
2022/09/11 10:05:53;;;;;;;10.75;6.85;;;;;;;;;;5019049;28;20076;-79
2022/09/11 10:08:35;;;;;;;11.18;7.45;;;;;;;;;;5022472;28;20504;-80
2022/09/11 10:11:06;;;;;;;11.73;7.03;;;;;;;;;;5015633;28;20428;-80
2022/09/11 10:13:33;;;;;;;10.57;5.78;;;;;;;;;;5015118;28;20048;-78
2022/09/11 10:16:01;;;;;;;11.32;6.43;;;;;;;;;;5014779;28;20048;-78
2022/09/11 10:18:31;;;;;;;8.88;6.28;;;;;;;;;;4995796;28;20049;-78
2022/09/11 10:21:12;;;;;;;9.70;6.32;;;;;;;;;;5022293;28;20499;-78
2022/09/11 10:23:38;;;;;;;;;;;;;;;;;;4980173;28;20049;-77
2022/09/11 10:26:04;;;;;;;11.80;4.70;;;;;;;;;;5012147;28;19992;-76
2022/09/11 10:28:32;;;;;;;9.30;4.25;;;;;;;;;;5013302;28;20046;-78
2022/09/11 10:31:01;;;;;;;10.00;4.95;;;;;;;;;;4991524;28;20054;-77
2022/09/11 10:33:30;;;;;;;8.27;4.72;;;;;;;;;;4998637;28;20050;-81
2022/09/11 10:35:57;;;;;;;10.07;5.43;;;;;;;;;;4983497;28;20412;-77
2022/09/11 10:38:29;;;;;;;9.30;4.75;;;;;;;;;;4993116;28;20049;-79
2022/09/11 10:41:02;;;;;;;10.63;4.57;;;;;;;;;;4998384;28;20055;-75
2022/09/11 10:43:34;;;;;;;9.30;4.40;;;;;;;;;;4985202;28;20058;-77
2022/09/11 10:46:21;;;;;;;8.32;4.07;;;;;;;;;;4998112;28;20050;-77
2022/09/11 10:48:54;;;;;;;10.50;3.60;;;;;;;;;;4995191;28;20174;-78
2022/09/11 10:51:21;;;;;;;7.07;3.55;;;;;;;;;;4995440;28;20408;-76
2022/09/11 10:53:53;;;;;;;10.20;3.75;;;;;;;;;;4994222;28;20074;-77
2022/09/11 10:56:19;;;;;;;20.60;4.25;;;;;;;;;;5002205;28;20057;-76
2022/09/11 10:58:48;;;;;;;7.78;3.20;;;;;;;;;;5008677;28;20130;-79
2022/09/11 11:01:14;;;;;;;7.43;3.33;;;;;;;;;;5001790;28;20054;-78
2022/09/11 11:03:40;;;;;;;27.00;4.15;;;;;;;;;;4996495;28;20046;-77
2022/09/11 11:06:14;;;;;;;20.23;4.55;;;;;;;;;;4980158;28;20047;-80
2022/09/11 11:08:50;;;;;;;12.15;4.30;;;;;;;;;;4983779;28;20047;-79
2022/09/11 11:11:23;;;;;;;7.15;3.10;;;;;;;;;;4987914;28;20042;-80
2022/09/11 11:13:52;;;;;;;11.68;3.97;;;;;;;;;;4994494;28;20050;-79
2022/09/11 11:16:26;;;;;;;7.28;3.00;;;;;;;;;;4994424;28;20555;-80
2022/09/11 11:19:24;;;;;;;13.70;4.00;;;;;;;;;;5004569;28;20057;-77
2022/09/11 11:22:13;;;;;;;13.85;3.45;;;;;;;;;;4944768;29;20498;-78
2022/09/11 11:24:39;;;;;;;9.00;2.70;;;;;;;;;;4892633;29;20105;-79
2022/09/11 11:27:14;;;;;;;7.47;2.80;;;;;;;;;;4892360;29;20207;-78
2022/09/11 11:29:49;;;;;;;13.27;3.63;;;;;;;;;;4917535;29;20052;-78
2022/09/11 11:32:23;;;;;;;13.70;3.08;;;;;;;;;;4902636;29;20048;-79
2022/09/11 11:35:00;;;;;;;13.50;2.80;;;;;;;;;;4915937;29;20066;-79
2022/09/11 11:37:40;;;;;;;6.72;2.75;;;;;;;;;;4916327;29;20096;-79
2022/09/11 11:40:13;;;;;;;7.55;2.80;;;;;;;;;;4915589;29;20131;-79
2022/09/11 11:42:42;;;;;;;16.17;3.88;;;;;;;;;;4918041;29;20090;-79
2022/09/11 11:45:10;;;;;;;10.10;2.95;;;;;;;;;;4912041;29;20056;-79
2022/09/11 11:47:41;;;;;;;7.13;2.50;;;;;;;;;;4898824;29;20506;-79
2022/09/11 11:50:23;;;;;;;6.32;2.17;;;;;;;;;;4901575;29;20070;-79
2022/09/11 11:53:16;;;;;;;5.90;1.70;;;;;;;;;;4900325;29;20055;-80
2022/09/11 11:55:46;;;;;;;8.32;2.33;;;;;;;;;;4897717;29;20060;-83
2022/09/11 11:58:13;;;;;;;6.80;2.47;;;;;;;;;;4954631;29;20178;-81
2022/09/11 12:00:43;;;;;;;9.90;2.33;;;;;;;;;;4970543;28;20047;-76
2022/09/11 12:03:14;;;;;;;5.10;2.20;;;;;;;;;;5021593;28;20053;-77
2022/09/11 12:05:40;;;;;;;8.23;2.60;;;;;;;;;;5005832;28;20046;-77
2022/09/11 12:08:12;;;;;;;12.77;3.05;;;;;;;;;;5010486;28;20065;-79
2022/09/11 12:10:39;;;;;;;5.93;2.28;;;;;;;;;;5026612;28;20046;-80
2022/09/11 12:13:07;;;;;;;8.98;2.40;;;;;;;;;;5018224;28;20038;-78
2022/09/11 12:15:35;;;;;;;5.35;2.03;;;;;;;;;;5021436;28;20496;-78
2022/09/11 12:18:10;;;;;;;6.30;1.90;;;;;;;;;;5021889;28;20046;-79
2022/09/11 12:20:40;;;;;;;5.55;1.83;;;;;;;;;;5020679;28;20046;-78
2022/09/11 12:23:26;;;;;;;5.35;1.60;;;;;;;;;;5021108;28;20050;-78
2022/09/11 12:26:03;;;;;;;4.88;1.90;;;;;;;;;;5012253;28;20141;-77
2022/09/11 12:28:30;;;;;;;5.32;1.70;;;;;;;;;;5009406;28;20104;-79
2022/09/11 12:30:57;;;;;;;6.80;2.38;;;;;;;;;;4993680;28;20153;-77
2022/09/11 12:33:38;;;;;;;5.97;2.08;;;;;;;;;;5016205;28;20026;-79
2022/09/11 12:36:06;;;;;;;7.28;2.72;;;;;;;;;;4999866;28;20081;-76
2022/09/11 12:38:39;;;;;;;6.10;2.63;;;;;;;;;;5015742;28;20140;-81
2022/09/11 12:41:25;;;;;;;5.13;2.00;;;;;;;;;;5022076;28;20042;-80
2022/09/11 12:43:53;;;;;;;18.70;2.90;;;;;;;;;;5003902;28;20057;-82
2022/09/11 12:46:22;;;;;;;8.90;2.40;;;;;;;;;;5020256;28;20044;-82
2022/09/11 12:48:53;;;;;;;5.60;2.20;;;;;;;;;;5022647;28;20034;-82
2022/09/11 12:51:24;;;;;;;5.53;2.53;;;;;;;;;;5015272;28;20137;-83
2022/09/11 12:53:59;;;;;;;6.13;2.20;;;;;;;;;;5014627;28;20050;-83
2022/09/11 12:56:26;;;;;;;8.23;2.65;;;;;;;;;;4979170;28;20053;-82
2022/09/11 12:59:00;;;;;;;8.27;2.90;;;;;;;;;;5014431;28;20496;-83
2022/09/11 13:01:31;;;;;;;8.20;3.05;;;;;;;;;;5015363;28;20054;-82
2022/09/11 13:03:57;;;;;;;;;;;;;;;;;;4996936;28;20042;-83
2022/09/11 13:06:26;;;;;;;8.98;2.80;;;;;;;;;;4997875;28;19922;-83
2022/09/11 13:08:58;;;;;;;6.53;2.45;;;;;;;;;;5015473;28;20148;-82
2022/09/11 13:11:41;;;;;;;5.45;2.58;;;;;;;;;;5015440;28;20046;-82
2022/09/11 13:14:31;;;;;;;6.47;2.78;;;;;;;;;;5004097;28;20046;-82
2022/09/11 13:16:58;;;;;;;6.53;3.92;;;;;;;;;;5012469;28;20125;-82
2022/09/11 13:19:31;;;;;;;8.93;3.60;;;;;;;;;;5013500;28;20061;-83
2022/09/11 13:21:57;;;;;;;13.75;4.88;;;;;;;;;;4998022;28;20130;-82
2022/09/11 13:24:24;;;;;;;7.50;4.13;;;;;;;;;;5010535;28;20556;-83
2022/09/11 13:26:56;;;;;;;7.38;4.75;;;;;;;;;;5014761;28;20042;-83
2022/09/11 13:29:23;;;;;;;8.18;4.97;;;;;;;;;;5003913;28;20069;-83
2022/09/11 13:31:50;;;;;;;8.02;4.43;;;;;;;;;;5012924;28;20050;-83
2022/09/11 13:34:17;;;;;;;9.25;4.68;;;;;;;;;;4999052;28;20052;-83
2022/09/11 13:36:46;;;;;;;7.63;4.03;;;;;;;;;;5015728;28;20038;-83
2022/09/11 13:39:14;;;;;;;8.25;3.90;;;;;;;;;;5015676;28;20089;-83
2022/09/11 13:41:45;;;;;;;8.95;4.40;;;;;;;;;;5015696;28;20092;-83
2022/09/11 13:44:23;;;;;;;9.23;4.50;;;;;;;;;;5014786;28;20100;-82
2022/09/11 13:46:51;;;;;;;7.72;3.78;;;;;;;;;;5009336;28;20058;-83
2022/09/11 13:49:38;;;;;;;7.88;3.40;;;;;;;;;;5013159;28;20077;-83
2022/09/11 13:52:05;;;;;;;7.80;3.28;;;;;;;;;;5015158;28;20052;-83
2022/09/11 13:54:40;;;;;;;8.32;3.58;;;;;;;;;;5014740;28;20061;-82
2022/09/11 13:57:19;;;;;;;5.93;3.80;;;;;;;;;;5014518;28;20079;-83
2022/09/11 13:59:55;;;;;;;7.25;3.38;;;;;;;;;;5013729;28;20042;-83
2022/09/11 14:02:21;;;;;;;7.93;3.20;;;;;;;;;;5006650;28;20073;-82
2022/09/11 14:04:51;;;;;;;8.43;3.45;;;;;;;;;;5004997;28;20077;-82
2022/09/11 14:07:24;;;;;;;7.05;3.30;;;;;;;;;;5008158;28;20041;-82
2022/09/11 14:09:59;;;;;;;6.85;3.20;;;;;;;;;;5014609;28;20049;-83
2022/09/11 14:12:26;;;;;;;4.93;2.85;;;;;;;;;;5015360;28;20034;-83
2022/09/11 14:14:53;;;;;;;7.22;3.00;;;;;;;;;;5014341;28;20053;-83
2022/09/11 14:17:20;;;;;;;7.22;3.10;;;;;;;;;;5013871;28;20396;-83
2022/09/11 14:19:46;;;;;;;7.25;3.30;;;;;;;;;;5012994;28;20042;-83
2022/09/11 14:22:14;;;;;;;6.30;3.15;;;;;;;;;;5010530;28;20113;-82
2022/09/11 14:24:50;;;;;;;9.07;3.00;;;;;;;;;;5023052;28;20050;-81
2022/09/11 14:27:31;;;;;;;8.15;2.78;;;;;;;;;;5023624;28;20037;-81
2022/09/11 14:29:59;;;;;;;5.97;2.25;;;;;;;;;;5013743;28;20195;-82
2022/09/11 14:32:26;;;;;;;6.28;2.33;;;;;;;;;;5016329;28;20061;-81
2022/09/11 14:34:52;;;;;;;5.35;2.03;;;;;;;;;;5020785;28;20046;-82
2022/09/11 14:37:18;;;;;;;5.30;2.10;;;;;;;;;;5018169;28;20064;-81
2022/09/11 14:39:55;;;;;;;5.38;2.30;;;;;;;;;;5023011;28;20568;-80